createdAt,value
2018-08-13T00:01:48.291Z,96628.00
2018-08-13T00:04:18.493Z,96629.00
2018-08-13T00:06:48.934Z,96629.00
2018-08-13T00:09:23.442Z,96626.00
2018-08-13T00:11:54.151Z,96629.00
2018-08-13T00:14:24.744Z,96622.00
2018-08-13T00:16:55.254Z,96623.00
2018-08-13T00:19:25.892Z,96612.00
2018-08-13T00:21:56.313Z,96616.00
2018-08-13T00:24:26.585Z,96615.00
2018-08-13T00:26:56.931Z,96613.00
2018-08-13T00:29:27.371Z,96609.00
2018-08-13T00:31:57.858Z,96608.00
2018-08-13T00:34:28.438Z,96613.00
2018-08-13T00:36:58.920Z,96607.00
2018-08-13T00:39:29.481Z,96600.00
2018-08-13T00:41:59.865Z,96602.00
2018-08-13T00:44:30.190Z,96595.00
2018-08-13T00:47:00.503Z,96594.00
2018-08-13T00:49:30.858Z,96595.00
2018-08-13T00:52:01.174Z,96601.00
2018-08-13T00:54:31.449Z,96598.00
2018-08-13T00:57:01.903Z,96592.00
2018-08-13T00:59:32.278Z,96594.00
2018-08-13T01:02:02.611Z,96590.00
2018-08-13T01:04:32.884Z,96594.00
2018-08-13T01:07:03.288Z,96588.00
2018-08-13T01:09:33.678Z,96584.00
2018-08-13T01:12:04.325Z,96589.00
2018-08-13T01:14:34.886Z,96584.00
2018-08-13T01:17:05.471Z,96585.00
2018-08-13T01:19:35.889Z,96588.00
2018-08-13T01:22:06.358Z,96583.00
2018-08-13T01:24:36.731Z,96580.00
2018-08-13T01:27:07.135Z,96572.00
2018-08-13T01:29:37.527Z,96562.00
2018-08-13T01:32:07.940Z,96577.00
2018-08-13T01:34:38.591Z,96575.00
2018-08-13T01:37:08.951Z,96567.00
2018-08-13T01:39:39.461Z,96577.00
2018-08-13T01:42:09.898Z,96579.00
2018-08-13T01:44:40.371Z,96581.00
2018-08-13T01:47:10.662Z,96576.00
2018-08-13T01:49:41.099Z,96579.00
2018-08-13T01:52:11.627Z,96581.00
2018-08-13T01:54:41.943Z,96580.00
2018-08-13T01:57:12.354Z,96576.00
2018-08-13T01:59:43.102Z,96573.00
2018-08-13T02:02:14.433Z,96573.00
2018-08-13T02:04:44.904Z,96574.00
2018-08-13T02:07:15.489Z,96579.00
2018-08-13T02:09:45.794Z,96580.00
2018-08-13T02:12:16.367Z,96570.00
2018-08-13T02:14:46.815Z,96572.00
2018-08-13T02:17:17.230Z,96573.00
2018-08-13T02:19:47.455Z,96573.00
2018-08-13T02:22:18.069Z,96579.00
2018-08-13T02:24:48.488Z,96570.00
2018-08-13T02:27:19.102Z,96570.00
2018-08-13T02:29:49.546Z,96574.00
2018-08-13T02:32:20.130Z,96576.00
2018-08-13T02:34:50.527Z,96570.00
2018-08-13T02:37:21.052Z,96573.00
2018-08-13T02:39:51.712Z,96570.00
2018-08-13T02:42:22.207Z,96569.00
2018-08-13T02:44:52.692Z,96564.00
2018-08-13T02:47:23.570Z,96564.00
2018-08-13T02:49:53.978Z,96563.00
2018-08-13T02:52:24.371Z,96559.00
2018-08-13T02:54:54.994Z,96571.00
2018-08-13T02:57:25.565Z,96573.00
2018-08-13T02:59:56.084Z,96573.00
2018-08-13T03:02:26.480Z,96571.00
2018-08-13T03:04:56.907Z,96561.00
2018-08-13T03:07:27.321Z,96563.00
2018-08-13T03:09:58.019Z,96565.00
2018-08-13T03:12:28.371Z,96557.00
2018-08-13T03:14:58.734Z,96559.00
2018-08-13T03:17:33.259Z,96555.00
2018-08-13T03:20:03.830Z,96556.00
2018-08-13T03:22:34.286Z,96552.00
2018-08-13T03:25:05.967Z,96555.00
2018-08-13T03:27:36.530Z,96551.00
2018-08-13T03:30:13.136Z,96556.00
2018-08-13T03:32:43.523Z,96560.00
2018-08-13T03:35:13.882Z,96559.00
2018-08-13T03:37:44.276Z,96552.00
2018-08-13T03:40:14.706Z,96546.00
2018-08-13T03:42:45.300Z,96553.00
2018-08-13T03:45:15.691Z,96545.00
2018-08-13T03:47:46.048Z,96539.00
2018-08-13T03:50:16.548Z,96531.00
2018-08-13T03:52:46.964Z,96539.00
2018-08-13T03:55:17.454Z,96536.00
2018-08-13T03:57:47.909Z,96538.00
2018-08-13T04:00:18.486Z,96536.00
2018-08-13T04:02:48.969Z,96531.00
2018-08-13T04:05:19.315Z,96529.00
2018-08-13T04:07:51.181Z,96540.00
2018-08-13T04:10:21.656Z,96559.00
2018-08-13T04:12:52.110Z,96570.00
2018-08-13T04:15:22.590Z,96567.00
2018-08-13T04:17:53.071Z,96562.00
2018-08-13T04:20:23.680Z,96564.00
2018-08-13T04:22:54.243Z,96558.00
2018-08-13T04:25:24.562Z,96549.00
2018-08-13T04:27:55.015Z,96551.00
2018-08-13T04:30:25.578Z,96555.00
2018-08-13T04:32:55.919Z,96554.00
2018-08-13T04:35:26.362Z,96558.00
2018-08-13T04:37:56.804Z,96560.00
2018-08-13T04:40:27.156Z,96548.00
2018-08-13T04:42:57.686Z,96547.00
2018-08-13T04:45:27.992Z,96534.00
2018-08-13T04:47:58.310Z,96533.00
2018-08-13T04:50:28.683Z,96527.00
2018-08-13T04:52:59.114Z,96535.00
2018-08-13T04:55:29.634Z,96556.00
2018-08-13T04:58:00.090Z,96540.00
2018-08-13T05:00:30.613Z,96555.00
2018-08-13T05:03:01.077Z,96561.00
2018-08-13T05:05:31.403Z,96544.00
2018-08-13T05:08:01.906Z,96557.00
2018-08-13T05:10:32.302Z,96557.00
2018-08-13T05:13:02.700Z,96553.00
2018-08-13T05:15:33.123Z,96548.00
2018-08-13T05:18:03.514Z,96549.00
2018-08-13T05:20:34.035Z,96545.00
2018-08-13T05:23:04.496Z,96557.00
2018-08-13T05:25:34.818Z,96556.00
2018-08-13T05:28:05.318Z,96560.00
2018-08-13T05:30:35.718Z,96560.00
2018-08-13T05:33:06.111Z,96547.00
2018-08-13T05:35:36.597Z,96539.00
2018-08-13T05:38:06.963Z,96550.00
2018-08-13T05:40:37.380Z,96541.00
2018-08-13T05:43:08.151Z,96550.00
2018-08-13T05:45:38.682Z,96566.00
2018-08-13T05:48:09.380Z,96572.00
2018-08-13T05:50:39.899Z,96578.00
2018-08-13T05:53:10.495Z,96570.00
2018-08-13T05:55:40.826Z,96566.00
2018-08-13T05:58:11.288Z,96557.00
2018-08-13T06:00:41.646Z,96565.00
2018-08-13T06:03:12.366Z,96556.00
2018-08-13T06:05:42.686Z,96558.00
2018-08-13T06:08:12.970Z,96563.00
2018-08-13T06:10:43.589Z,96567.00
2018-08-13T06:13:14.367Z,96564.00
2018-08-13T06:15:44.952Z,96559.00
2018-08-13T06:18:15.410Z,96561.00
2018-08-13T06:20:45.970Z,96562.00
2018-08-13T06:23:16.639Z,96569.00
2018-08-13T06:25:47.138Z,96581.00
2018-08-13T06:28:17.653Z,96581.00
2018-08-13T06:30:49.930Z,96569.00
2018-08-13T06:33:20.550Z,96570.00
2018-08-13T06:35:51.122Z,96575.00
2018-08-13T06:38:21.506Z,96575.00
2018-08-13T06:40:52.099Z,96577.00
2018-08-13T06:43:22.474Z,96577.00
2018-08-13T06:45:53.304Z,96578.00
2018-08-13T06:48:23.890Z,96578.00
2018-08-13T06:50:54.242Z,96581.00
2018-08-13T06:53:24.866Z,96575.00
2018-08-13T06:55:55.249Z,96581.00
2018-08-13T06:58:26.091Z,96583.00
2018-08-13T07:00:56.558Z,96581.00
2018-08-13T07:03:26.986Z,96590.00
2018-08-13T07:05:57.407Z,96600.00
2018-08-13T07:08:27.871Z,96608.00
2018-08-13T07:10:58.362Z,96606.00
2018-08-13T07:13:28.903Z,96615.00
2018-08-13T07:15:59.470Z,96600.00
2018-08-13T07:18:29.727Z,96610.00
2018-08-13T07:21:00.366Z,96608.00
2018-08-13T07:23:30.721Z,96610.00
2018-08-13T07:26:01.279Z,96604.00
2018-08-13T07:28:31.650Z,96605.00
2018-08-13T07:31:02.089Z,96600.00
2018-08-13T07:33:32.606Z,96603.00
2018-08-13T07:36:03.138Z,96598.00
2018-08-13T07:38:33.789Z,96613.00
2018-08-13T07:41:04.184Z,96622.00
2018-08-13T07:43:34.684Z,96622.00
2018-08-13T07:46:05.117Z,96628.00
2018-08-13T07:48:35.474Z,96625.00
2018-08-13T07:51:05.872Z,96625.00
2018-08-13T07:53:36.562Z,96608.00
2018-08-13T07:56:06.985Z,96629.00
2018-08-13T07:58:37.397Z,96637.00
2018-08-13T08:01:07.775Z,96635.00
2018-08-13T08:03:38.226Z,96636.00
2018-08-13T08:06:08.443Z,96634.00
2018-08-13T08:08:38.899Z,96633.00
2018-08-13T08:11:09.375Z,96629.00
2018-08-13T08:13:39.807Z,96635.00
2018-08-13T08:16:10.326Z,96631.00
2018-08-13T08:18:40.700Z,96635.00
2018-08-13T08:21:11.043Z,96631.00
2018-08-13T08:23:41.346Z,96636.00
2018-08-13T08:26:11.647Z,96629.00
2018-08-13T08:28:42.338Z,96628.00
2018-08-13T08:31:12.824Z,96634.00
2018-08-13T08:33:43.195Z,96632.00
2018-08-13T08:36:13.694Z,96627.00
2018-08-13T08:38:43.946Z,96627.00
2018-08-13T08:41:14.318Z,96630.00
2018-08-13T08:43:44.890Z,96631.00
2018-08-13T08:46:15.359Z,96631.00
2018-08-13T08:48:45.694Z,96624.00
2018-08-13T08:51:16.018Z,96619.00
2018-08-13T08:53:46.424Z,96615.00
2018-08-13T08:56:16.766Z,96626.00
2018-08-13T08:58:47.189Z,96609.00
2018-08-13T09:01:17.571Z,96626.00
2018-08-13T09:03:47.905Z,96628.00
2018-08-13T09:06:18.386Z,96635.00
2018-08-13T09:08:48.690Z,96628.00
2018-08-13T09:11:19.231Z,96636.00
2018-08-13T09:13:49.715Z,96627.00
2018-08-13T09:16:19.964Z,96638.00
2018-08-13T09:19:06.765Z,96635.00
2018-08-13T09:21:37.939Z,96641.00
2018-08-13T09:24:24.879Z,96638.00
2018-08-13T09:27:11.497Z,96646.00
2018-08-13T09:29:58.295Z,96631.00
2018-08-13T09:32:44.937Z,96647.00
2018-08-13T09:35:26.321Z,96653.00
2018-08-13T09:37:57.265Z,96659.00
2018-08-13T09:40:29.265Z,96665.00
2018-08-13T09:42:59.606Z,96665.00
2018-08-13T09:45:30.090Z,96668.00
2018-08-13T09:48:00.572Z,96675.00
2018-08-13T09:50:35.334Z,96666.00
2018-08-13T09:53:05.893Z,96672.00
2018-08-13T09:55:36.199Z,96672.00
2018-08-13T09:58:07.305Z,96667.00
2018-08-13T10:00:42.747Z,96669.00
2018-08-13T10:03:13.217Z,96658.00
2018-08-13T10:05:43.754Z,96666.00
2018-08-13T10:08:14.094Z,96667.00
2018-08-13T10:10:44.507Z,96663.00
2018-08-13T10:13:14.762Z,96662.00
2018-08-13T10:15:45.294Z,96661.00
2018-08-13T10:18:15.914Z,96657.00
2018-08-13T10:20:46.258Z,96653.00
2018-08-13T10:23:17.366Z,96644.00
2018-08-13T10:25:48.050Z,96657.00
2018-08-13T10:28:18.855Z,96649.00
2018-08-13T10:30:49.450Z,96656.00
2018-08-13T10:33:19.798Z,96658.00
2018-08-13T10:35:50.240Z,96653.00
2018-08-13T10:38:20.637Z,96650.00
2018-08-13T10:40:50.994Z,96651.00
2018-08-13T10:43:21.531Z,96652.00
2018-08-13T10:45:51.870Z,96650.00
2018-08-13T10:48:22.207Z,96644.00
2018-08-13T10:50:52.589Z,96649.00
2018-08-13T10:53:23.106Z,96646.00
2018-08-13T10:55:53.733Z,96643.00
2018-08-13T10:58:24.228Z,96645.00
2018-08-13T11:00:54.818Z,96640.00
2018-08-13T11:03:25.140Z,96641.00
2018-08-13T11:05:55.638Z,96642.00
2018-08-13T11:08:26.403Z,96630.00
2018-08-13T11:10:56.734Z,96636.00
2018-08-13T11:13:27.257Z,96636.00
2018-08-13T11:15:57.948Z,96645.00
2018-08-13T11:18:28.261Z,96650.00
2018-08-13T11:20:58.778Z,96650.00
2018-08-13T11:23:29.438Z,96650.00
2018-08-13T11:25:59.778Z,96647.00
2018-08-13T11:28:30.126Z,96650.00
2018-08-13T11:31:00.663Z,96655.00
2018-08-13T11:33:31.291Z,96650.00
2018-08-13T11:36:01.642Z,96652.00
2018-08-13T11:38:31.932Z,96647.00
2018-08-13T11:41:02.083Z,96645.00
2018-08-13T11:43:32.381Z,96656.00
2018-08-13T11:46:02.650Z,96646.00
2018-08-13T11:48:33.170Z,96644.00
2018-08-13T11:51:03.502Z,96645.00
2018-08-13T11:53:34.047Z,96648.00
2018-08-13T11:56:04.435Z,96649.00
2018-08-13T11:58:34.834Z,96652.00
2018-08-13T12:01:05.220Z,96648.00
2018-08-13T12:03:35.737Z,96640.00
2018-08-13T12:06:09.472Z,96640.00
2018-08-13T12:08:39.882Z,96640.00
2018-08-13T12:11:10.575Z,96638.00
2018-08-13T12:13:41.106Z,96634.00
2018-08-13T12:19:01.949Z,96650.00
2018-08-13T12:21:32.190Z,96661.00
2018-08-13T12:24:02.326Z,96666.00
2018-08-13T12:26:32.404Z,96658.00
2018-08-13T12:29:02.475Z,96662.00
2018-08-13T12:31:32.397Z,96659.00
2018-08-13T12:34:02.445Z,96663.00
2018-08-13T12:36:32.696Z,96670.00
2018-08-13T12:39:02.974Z,96664.00
2018-08-13T12:41:33.241Z,96672.00
2018-08-13T12:44:03.333Z,96677.00
2018-08-13T12:46:33.585Z,96678.00
2018-08-13T12:49:03.786Z,96680.00
2018-08-13T12:51:33.861Z,96678.00
2018-08-13T12:54:04.037Z,96680.00
2018-08-13T12:56:34.165Z,96679.00
2018-08-13T12:59:04.282Z,96683.00
2018-08-13T13:01:34.433Z,96689.00
2018-08-13T13:04:04.479Z,96681.00
2018-08-13T13:06:34.470Z,96681.00
2018-08-13T13:09:06.989Z,96678.00
2018-08-13T13:11:37.077Z,96668.00
2018-08-13T13:14:07.213Z,96666.00
2018-08-13T13:16:37.621Z,96662.00
2018-08-13T13:19:08.420Z,96660.00
2018-08-13T13:21:39.273Z,96658.00
2018-08-13T13:24:09.434Z,96656.00
2018-08-13T13:26:39.511Z,96652.00
2018-08-13T13:29:09.880Z,96640.00
2018-08-13T13:31:39.789Z,96638.00
2018-08-13T13:34:10.040Z,96636.00
2018-08-13T13:36:40.173Z,96630.00
2018-08-13T13:39:10.472Z,96625.00
2018-08-13T13:41:40.541Z,96620.00
2018-08-13T13:44:10.643Z,96621.00
2018-08-13T13:46:40.729Z,96634.00
2018-08-13T13:49:10.793Z,96639.00
2018-08-13T13:51:40.991Z,96633.00
2018-08-13T13:54:11.198Z,96629.00
2018-08-13T13:56:41.233Z,96629.00
2018-08-13T13:59:11.280Z,96634.00
2018-08-13T14:01:41.624Z,96623.00
2018-08-13T14:04:11.696Z,96615.00
2018-08-13T14:06:41.947Z,96620.00
2018-08-13T14:09:13.085Z,96617.00
2018-08-13T14:11:43.330Z,96619.00
2018-08-13T14:14:13.529Z,96618.00
2018-08-13T14:16:43.809Z,96617.00
2018-08-13T14:19:14.006Z,96612.00
2018-08-13T14:21:44.193Z,96612.00
2018-08-13T14:24:14.396Z,96601.00
2018-08-13T14:26:44.633Z,96596.00
2018-08-13T14:29:14.638Z,96594.00
2018-08-13T14:31:44.728Z,96597.00
2018-08-13T14:34:14.925Z,96590.00
2018-08-13T14:36:45.261Z,96588.00
2018-08-13T14:39:15.357Z,96585.00
2018-08-13T14:41:45.465Z,96581.00
2018-08-13T14:44:15.677Z,96588.00
2018-08-13T14:46:45.738Z,96579.00
2018-08-13T14:49:15.765Z,96577.00
2018-08-13T14:51:45.866Z,96578.00
2018-08-13T14:54:16.042Z,96571.00
2018-08-13T14:56:46.417Z,96572.00
2018-08-13T14:59:16.429Z,96572.00
2018-08-13T15:01:46.528Z,96572.00
2018-08-13T15:04:16.678Z,96579.00
2018-08-13T15:06:46.942Z,96569.00
2018-08-13T15:09:17.110Z,96566.00
2018-08-13T15:11:47.063Z,96567.00
2018-08-13T15:14:17.349Z,96559.00
2018-08-13T15:16:47.345Z,96552.00
2018-08-13T15:19:17.571Z,96547.00
2018-08-13T15:21:47.697Z,96544.00
2018-08-13T15:24:17.686Z,96532.00
2018-08-13T15:26:47.848Z,96534.00
2018-08-13T15:29:17.830Z,96545.00
2018-08-13T15:31:48.114Z,96540.00
2018-08-13T15:34:18.407Z,96541.00
2018-08-13T15:36:48.624Z,96529.00
2018-08-13T15:39:18.713Z,96532.00
2018-08-13T15:41:48.769Z,96534.00
2018-08-13T15:44:18.748Z,96545.00
2018-08-13T15:46:48.821Z,96537.00
2018-08-13T15:49:18.962Z,96532.00
2018-08-13T15:51:49.144Z,96533.00
2018-08-13T15:54:19.249Z,96545.00
2018-08-13T15:56:49.245Z,96554.00
2018-08-13T15:59:19.237Z,96542.00
2018-08-13T16:01:49.412Z,96535.00
2018-08-13T16:04:19.717Z,96528.00
2018-08-13T16:06:49.735Z,96523.00
2018-08-13T16:09:20.189Z,96522.00
2018-08-13T16:11:50.390Z,96517.00
2018-08-13T16:14:20.449Z,96528.00
2018-08-13T16:16:50.636Z,96529.00
2018-08-13T16:19:21.090Z,96529.00
2018-08-13T16:21:51.198Z,96520.00
2018-08-13T16:24:21.296Z,96516.00
2018-08-13T16:26:51.495Z,96510.00
2018-08-13T16:29:21.589Z,96502.00
2018-08-13T16:31:51.849Z,96508.00
2018-08-13T16:34:21.949Z,96514.00
2018-08-13T16:36:52.098Z,96506.00
2018-08-13T16:39:22.228Z,96508.00
2018-08-13T16:41:52.413Z,96507.00
2018-08-13T16:44:22.535Z,96510.00
2018-08-13T16:46:52.665Z,96504.00
2018-08-13T16:49:22.790Z,96501.00
2018-08-13T16:51:52.938Z,96500.00
2018-08-13T16:54:23.230Z,96497.00
2018-08-13T16:56:53.462Z,96492.00
2018-08-13T16:59:23.605Z,96487.00
2018-08-13T17:01:53.937Z,96485.00
2018-08-13T17:04:24.049Z,96491.00
2018-08-13T17:06:54.132Z,96498.00
2018-08-13T17:09:24.217Z,96491.00
2018-08-13T17:11:54.472Z,96493.00
2018-08-13T17:14:24.952Z,96493.00
2018-08-13T17:16:54.836Z,96495.00
2018-08-13T17:19:25.050Z,96491.00
2018-08-13T17:21:55.121Z,96485.00
2018-08-13T17:24:25.347Z,96491.00
2018-08-13T17:26:55.577Z,96487.00
2018-08-13T17:29:25.689Z,96486.00
2018-08-13T17:31:56.014Z,96491.00
2018-08-13T17:34:26.083Z,96493.00
2018-08-13T17:36:56.295Z,96497.00
2018-08-13T17:39:26.571Z,96494.00
2018-08-13T17:41:56.639Z,96493.00
2018-08-13T17:44:26.712Z,96495.00
2018-08-13T17:46:56.921Z,96502.00
2018-08-13T17:49:27.161Z,96507.00
2018-08-13T17:51:57.396Z,96510.00
2018-08-13T17:54:27.513Z,96520.00
2018-08-13T17:56:57.545Z,96517.00
2018-08-13T17:59:31.418Z,96530.00
2018-08-13T18:02:01.676Z,96531.00
2018-08-13T18:04:31.805Z,96540.00
2018-08-13T18:07:01.805Z,96544.00
2018-08-13T18:09:31.980Z,96556.00
2018-08-13T18:12:02.317Z,96566.00
2018-08-13T18:14:32.674Z,96588.00
2018-08-13T18:17:02.765Z,96575.00
2018-08-13T18:19:33.061Z,96593.00
2018-08-13T18:22:03.278Z,96615.00
2018-08-13T18:24:33.312Z,96604.00
2018-08-13T18:27:03.561Z,96600.00
2018-08-13T18:29:34.883Z,96591.00
2018-08-13T18:32:05.286Z,96588.00
2018-08-13T18:34:35.429Z,96590.00
2018-08-13T18:37:05.553Z,96580.00
2018-08-13T18:39:35.549Z,96583.00
2018-08-13T18:42:05.514Z,96592.00
2018-08-13T18:44:35.490Z,96587.00
2018-08-13T18:47:05.941Z,96594.00
2018-08-13T18:49:36.034Z,96594.00
2018-08-13T18:52:06.265Z,96590.00
2018-08-13T18:54:36.545Z,96602.00
2018-08-13T18:57:06.697Z,96615.00
2018-08-13T18:59:36.880Z,96615.00
2018-08-13T19:02:07.258Z,96625.00
2018-08-13T19:04:37.500Z,96627.00
2018-08-13T19:07:07.804Z,96636.00
2018-08-13T19:09:44.432Z,96642.00
2018-08-13T19:12:14.493Z,96644.00
2018-08-13T19:14:44.713Z,96647.00
2018-08-13T19:17:14.926Z,96657.00
2018-08-13T19:19:44.957Z,96662.00
2018-08-13T19:22:15.126Z,96656.00
2018-08-13T19:24:45.185Z,96657.00
2018-08-13T19:27:15.307Z,96654.00
2018-08-13T19:29:45.723Z,96654.00
2018-08-13T19:32:15.990Z,96665.00
2018-08-13T19:34:46.402Z,96673.00
2018-08-13T19:37:16.559Z,96695.00
2018-08-13T19:39:46.743Z,96701.00
2018-08-13T19:42:17.149Z,96695.00
2018-08-13T19:44:47.243Z,96687.00
2018-08-13T19:47:17.191Z,96681.00
2018-08-13T19:49:47.409Z,96672.00
2018-08-13T19:52:17.607Z,96662.00
2018-08-13T19:54:47.900Z,96666.00
2018-08-13T19:57:18.058Z,96672.00
2018-08-13T19:59:48.305Z,96676.00
2018-08-13T20:02:18.248Z,96682.00
2018-08-13T20:04:48.422Z,96682.00
2018-08-13T20:07:18.606Z,96681.00
2018-08-13T20:09:48.909Z,96672.00
2018-08-13T20:12:19.038Z,96682.00
2018-08-13T20:14:49.368Z,96688.00
2018-08-13T20:17:19.590Z,96693.00
2018-08-13T20:19:49.761Z,96690.00
2018-08-13T20:22:19.846Z,96693.00
2018-08-13T20:24:50.014Z,96693.00
2018-08-13T20:27:20.178Z,96697.00
2018-08-13T20:29:50.258Z,96698.00
2018-08-13T20:32:20.406Z,96693.00
2018-08-13T20:34:50.516Z,96693.00
2018-08-13T20:37:20.745Z,96696.00
2018-08-13T20:39:51.031Z,96699.00
2018-08-13T20:42:21.310Z,96707.00
2018-08-13T20:44:51.557Z,96717.00
2018-08-13T20:47:21.925Z,96714.00
2018-08-13T20:49:52.123Z,96730.00
2018-08-13T20:52:22.412Z,96737.00
2018-08-13T20:54:52.691Z,96733.00
2018-08-13T20:57:22.964Z,96748.00
2018-08-13T20:59:53.003Z,96738.00
2018-08-13T21:02:23.099Z,96745.00
2018-08-13T21:04:53.140Z,96753.00
2018-08-13T21:07:23.512Z,96756.00
2018-08-13T21:09:53.648Z,96762.00
2018-08-13T21:12:23.874Z,96765.00
2018-08-13T21:14:54.061Z,96765.00
2018-08-13T21:17:24.317Z,96761.00
2018-08-13T21:19:54.644Z,96759.00
2018-08-13T21:22:24.710Z,96758.00
2018-08-13T21:24:54.890Z,96760.00
2018-08-13T21:27:24.976Z,96763.00
2018-08-13T21:29:54.971Z,96763.00
2018-08-13T21:32:25.175Z,96763.00
2018-08-13T21:34:55.131Z,96773.00
2018-08-13T21:37:25.357Z,96782.00
2018-08-13T21:39:55.480Z,96798.00
2018-08-13T21:42:25.474Z,96798.00
2018-08-13T21:44:55.653Z,96765.00
2018-08-13T21:47:25.726Z,96750.00
2018-08-13T21:49:55.816Z,96774.00
2018-08-13T21:52:26.114Z,96780.00
2018-08-13T21:54:56.003Z,96783.00
2018-08-13T21:57:26.366Z,96787.00
2018-08-13T21:59:56.857Z,96785.00
2018-08-13T22:02:27.463Z,96789.00
2018-08-13T22:04:58.222Z,96777.00
2018-08-13T22:07:28.644Z,96778.00
2018-08-13T22:09:59.074Z,96782.00
2018-08-13T22:12:29.518Z,96786.00
2018-08-13T22:14:59.892Z,96789.00
2018-08-13T22:17:30.455Z,96789.00
2018-08-13T22:20:01.074Z,96798.00
2018-08-13T22:22:31.586Z,96807.00
2018-08-13T22:25:04.591Z,96810.00
2018-08-13T22:27:34.985Z,96811.00
2018-08-13T22:30:06.995Z,96808.00
2018-08-13T22:32:37.300Z,96805.00
2018-08-13T22:35:08.971Z,96803.00
2018-08-13T22:37:40.921Z,96809.00
2018-08-13T22:40:18.851Z,96808.00
2018-08-13T22:42:49.591Z,96805.00
2018-08-13T22:45:22.080Z,96798.00
2018-08-13T22:47:52.855Z,96800.00
2018-08-13T22:50:23.271Z,96802.00
2018-08-13T22:52:54.076Z,96805.00
2018-08-13T22:55:24.618Z,96801.00
2018-08-13T22:57:55.219Z,96803.00
2018-08-13T23:00:25.548Z,96808.00
2018-08-13T23:02:56.267Z,96812.00
2018-08-13T23:05:27.574Z,96815.00
2018-08-13T23:07:58.182Z,96816.00
2018-08-13T23:10:28.712Z,96813.00
2018-08-13T23:12:58.941Z,96820.00
2018-08-13T23:15:29.475Z,96817.00
2018-08-13T23:17:59.795Z,96822.00
2018-08-13T23:20:30.608Z,96820.00
2018-08-13T23:23:02.302Z,96821.00
2018-08-13T23:25:36.289Z,96824.00
2018-08-13T23:28:10.437Z,96827.00
2018-08-13T23:30:40.897Z,96825.00
2018-08-13T23:33:11.283Z,96822.00
2018-08-13T23:35:41.935Z,96818.00
2018-08-13T23:38:12.422Z,96811.00
2018-08-13T23:40:42.885Z,96815.00
2018-08-13T23:43:13.392Z,96814.00
2018-08-13T23:45:43.767Z,96810.00
2018-08-13T23:48:14.498Z,96803.00
2018-08-13T23:50:45.195Z,96805.00
2018-08-13T23:53:16.010Z,96797.00
2018-08-13T23:55:46.610Z,96797.00
2018-08-13T23:58:17.092Z,96790.00
